Time;durP1;ratioP1;P1;durP2;ratioP2;P2;SDS_P1;SDS_P2;PMS_P1;PMS_P2;Temp;Humidity;BMP_temperature;BMP_pressure;BME280_temperature;BME280_humidity;BME280_pressure;Samples;Min_cycle;Max_cycle;Signal;HPM_P1;HPM_P2
2021/10/28 00:14:40;;;;;;;11.93;6.78;;;8.70;99.90;;;9.73;100.00;101017.63;6069646;23;20026;-79
2021/10/28 00:17:16;;;;;;;9.52;5.90;;;8.60;99.90;;;9.48;100.00;101018.69;6074200;23;20010;-80
2021/10/28 00:19:43;;;;;;;;;;;8.40;99.90;;;9.32;100.00;101017.69;6085133;23;20018;-80
2021/10/28 00:22:12;;;;;;;9.32;4.82;;;8.30;99.90;;;9.20;100.00;101017.63;6046942;23;19921;-81
2021/10/28 00:24:39;;;;;;;9.23;5.65;;;8.10;99.90;;;9.06;100.00;101023.47;6043177;23;20022;-80
2021/10/28 00:27:05;;;;;;;9.07;5.85;;;8.00;99.90;;;9.02;100.00;101014.97;6080374;23;20011;-82
2021/10/28 00:29:31;;;;;;;9.93;5.80;;;7.90;99.90;;;8.98;100.00;101016.81;6075831;23;20011;-81
2021/10/28 00:31:59;;;;;;;9.73;6.05;;;7.90;99.90;;;8.92;100.00;101006.22;6069061;23;20471;-80
2021/10/28 00:34:25;;;;;;;11.00;6.25;;;7.80;99.90;;;8.96;100.00;101015.50;6068348;23;20003;-80
2021/10/28 00:36:53;;;;;;;12.10;6.47;;;7.90;99.90;;;8.97;100.00;101020.75;6067492;23;20011;-81
2021/10/28 00:39:20;;;;;;;13.75;6.65;;;7.80;99.90;;;8.91;100.00;101010.97;6065806;23;20017;-81
2021/10/28 00:41:46;;;;;;;15.63;7.15;;;7.80;99.90;;;8.92;100.00;101011.78;6065883;23;20090;-80
2021/10/28 00:44:12;;;;;;;17.30;7.82;;;7.80;99.90;;;9.03;100.00;101015.78;6065561;23;20018;-80
2021/10/28 00:46:40;;;;;;;12.32;7.38;;;7.90;99.90;;;9.11;100.00;101009.34;6067602;23;20018;-82
2021/10/28 00:49:11;;;;;;;11.07;6.90;;;7.90;99.90;;;9.12;100.00;101018.53;6066515;23;20007;-81
2021/10/28 00:51:42;;;;;;;10.82;6.05;;;8.00;99.90;;;8.99;100.00;101007.28;6067416;23;20063;-81
2021/10/28 00:54:17;;;;;;;9.43;5.93;;;7.90;99.90;;;8.84;100.00;101012.66;6065919;23;20011;-82
2021/10/28 00:56:44;;;;;;;12.07;6.07;;;7.70;99.90;;;8.66;100.00;101002.78;6066264;23;20075;-81
2021/10/28 00:59:11;;;;;;;8.52;5.00;;;7.50;99.90;;;8.48;100.00;101001.25;6065871;23;20011;-78
2021/10/28 01:01:38;;;;;;;12.27;6.35;;;7.40;99.90;;;8.40;100.00;101003.75;6067584;23;20045;-79
2021/10/28 01:04:05;;;;;;;8.45;5.57;;;7.30;99.90;;;8.33;100.00;100999.84;6068415;23;20025;-81
2021/10/28 01:06:32;;;;;;;11.73;6.40;;;7.20;99.90;;;8.34;100.00;100998.69;6065473;23;20025;-82
2021/10/28 01:08:59;;;;;;;12.10;5.78;;;7.30;99.90;;;8.40;100.00;101006.53;6067427;23;20009;-79
2021/10/28 01:11:27;;;;;;;13.98;6.45;;;7.30;99.90;;;8.39;100.00;101004.06;6066931;23;20014;-81
2021/10/28 01:13:57;;;;;;;9.15;5.50;;;7.30;99.90;;;8.35;100.00;101003.09;6041644;23;20433;-80
2021/10/28 01:16:25;;;;;;;9.23;5.15;;;7.20;99.90;;;8.24;100.00;101002.63;6042085;23;20070;-82
2021/10/28 01:18:53;;;;;;;8.68;5.35;;;7.10;99.90;;;8.17;100.00;100993.16;6065601;23;20018;-80
2021/10/28 01:21:21;;;;;;;10.48;6.13;;;7.10;99.90;;;8.09;100.00;101002.38;6067155;23;20014;-82
2021/10/28 01:23:48;;;;;;;8.30;4.95;;;7.00;99.90;;;7.96;100.00;100996.66;6066845;23;20356;-80
2021/10/28 01:26:17;;;;;;;8.20;5.13;;;6.90;99.90;;;7.88;100.00;100993.91;6066865;23;20003;-80
2021/10/28 01:29:01;;;;;;;9.48;5.40;;;6.80;99.90;;;7.82;100.00;100989.69;6066673;23;20026;-81
2021/10/28 01:31:34;;;;;;;9.52;5.82;;;6.80;99.90;;;7.77;100.00;100999.00;6041426;23;20017;-80
2021/10/28 01:34:06;;;;;;;11.43;5.90;;;6.70;99.90;;;7.73;100.00;100995.28;6041931;23;20011;-80
2021/10/28 01:36:34;;;;;;;8.80;6.00;;;6.70;99.90;;;7.67;100.00;100993.81;6051359;23;20100;-80
2021/10/28 01:39:16;;;;;;;9.00;5.35;;;6.60;99.90;;;7.64;100.00;100991.69;6085154;23;20007;-84
2021/10/28 01:41:43;;;;;;;10.82;6.07;;;6.60;99.90;;;7.62;100.00;100993.97;6058472;23;20017;-81
2021/10/28 01:44:09;;;;;;;13.45;5.80;;;6.60;99.90;;;7.65;100.00;100998.06;6064918;23;20010;-80
2021/10/28 01:46:35;;;;;;;8.60;5.20;;;6.50;99.90;;;7.56;100.00;100984.19;6066794;23;20113;-80
2021/10/28 01:49:00;;;;;;;13.88;6.25;;;6.50;99.90;;;7.45;100.00;100976.53;6066458;23;20035;-82
2021/10/28 01:51:27;;;;;;;10.65;6.00;;;6.40;99.90;;;7.44;100.00;100981.28;6066713;23;20010;-80
2021/10/28 01:53:54;;;;;;;10.27;5.75;;;6.40;99.90;;;7.41;100.00;100979.97;6066460;23;20018;-82
2021/10/28 01:56:19;;;;;;;11.02;5.85;;;6.30;99.90;;;7.38;100.00;100968.69;6066641;23;20010;-79
2021/10/28 01:58:49;;;;;;;10.27;5.50;;;6.30;99.90;;;7.34;100.00;100973.28;6040958;23;20017;-80
2021/10/28 02:01:15;;;;;;;10.82;6.10;;;6.30;99.90;;;7.32;100.00;100970.81;6064849;23;20011;-80
2021/10/28 02:03:41;;;;;;;9.25;4.97;;;6.30;99.90;;;7.29;100.00;100967.88;6041177;23;20002;-82
2021/10/28 02:06:07;;;;;;;14.77;7.63;;;6.20;99.90;;;7.36;100.00;100966.22;6064977;23;20022;-81
2021/10/28 02:08:33;;;;;;;15.00;8.27;;;6.30;99.90;;;7.56;100.00;100966.69;6066433;23;20018;-80
2021/10/28 02:10:59;;;;;;;18.92;8.38;;;6.50;99.90;;;7.67;100.00;100960.47;6066621;23;20462;-81
2021/10/28 02:13:25;;;;;;;17.25;8.98;;;6.60;99.90;;;7.74;100.00;100955.19;6066540;23;20011;-81
2021/10/28 02:15:51;;;;;;;18.50;8.82;;;6.60;99.90;;;7.83;100.00;100958.75;6065847;23;20442;-83
2021/10/28 02:18:17;;;;;;;13.10;7.82;;;6.70;99.90;;;7.84;100.00;100957.63;6064960;23;20015;-82
2021/10/28 02:20:43;;;;;;;14.88;8.10;;;6.70;99.90;;;7.83;100.00;100955.19;6064710;23;20030;-81
2021/10/28 02:23:10;;;;;;;19.05;7.90;;;6.70;99.90;;;7.77;100.00;100962.88;6066834;23;20010;-82
2021/10/28 02:25:36;;;;;;;14.05;7.95;;;6.70;99.90;;;7.72;100.00;100954.72;6041203;23;20041;-78
2021/10/28 02:28:06;;;;;;;14.75;8.23;;;6.70;99.90;;;7.74;100.00;100959.94;6064689;23;20441;-81
2021/10/28 02:30:33;;;;;;;16.60;7.90;;;6.60;99.90;;;7.76;100.00;100946.53;6087042;23;20102;-80
2021/10/28 02:32:59;;;;;;;14.55;6.85;;;6.60;99.90;;;7.75;100.00;100948.50;6075220;23;20029;-81
2021/10/28 02:35:25;;;;;;;15.18;7.10;;;6.60;99.90;;;7.72;100.00;100948.34;6073738;23;20006;-81
2021/10/28 02:37:51;;;;;;;12.98;7.40;;;6.60;99.90;;;7.68;100.00;100950.97;6073269;23;20129;-82
2021/10/28 02:40:17;;;;;;;14.52;7.05;;;6.50;99.90;;;7.58;100.00;100951.31;6097120;23;20348;-82
2021/10/28 02:42:43;;;;;;;10.75;6.18;;;6.50;99.90;;;7.52;100.00;100949.03;6073721;23;20017;-80
2021/10/28 02:45:10;;;;;;;15.65;7.00;;;6.40;99.90;;;7.58;100.00;100947.72;6098214;23;20321;-82
2021/10/28 02:47:37;;;;;;;10.23;6.45;;;6.50;99.90;;;7.49;100.00;100942.19;6097970;23;20017;-81
2021/10/28 02:50:06;;;;;;;11.02;6.82;;;6.40;99.90;;;7.47;100.00;100938.91;6098912;23;20006;-79
2021/10/28 02:52:34;;;;;;;15.30;8.90;;;6.40;99.90;;;7.42;100.00;100934.34;6100224;23;20009;-80
2021/10/28 02:55:00;;;;;;;15.68;8.70;;;6.30;99.90;;;7.49;100.00;100938.56;6075125;23;20010;-81
2021/10/28 02:57:26;;;;;;;15.75;8.32;;;6.40;99.90;;;7.52;100.00;100933.19;6101233;23;20454;-82
2021/10/28 02:59:51;;;;;;;13.88;7.68;;;6.40;99.90;;;7.54;100.00;100936.47;6099674;23;20078;-83
2021/10/28 03:02:17;;;;;;;14.02;6.60;;;6.40;99.90;;;7.48;100.00;100928.63;6100379;23;20034;-82
2021/10/28 03:04:43;;;;;;;11.55;6.47;;;6.40;99.90;;;7.45;100.00;100930.06;6078656;23;20010;-81
2021/10/28 03:07:09;;;;;;;11.55;6.68;;;6.30;99.90;;;7.42;100.00;100927.97;6087228;23;20438;-81
2021/10/28 03:09:35;;;;;;;14.25;7.07;;;6.30;99.90;;;7.31;100.00;100924.75;6109870;23;20082;-82
2021/10/28 03:12:04;;;;;;;12.02;6.30;;;6.20;99.90;;;7.21;100.00;100915.91;6111220;23;20002;-81
2021/10/28 03:25:55;;;;;;;16.13;9.23;;;5.90;99.90;;;7.04;100.00;100911.19;6104679;23;20101;-83
2021/10/28 03:28:21;;;;;;;14.98;9.30;;;5.90;99.90;;;7.17;100.00;100901.88;6101883;23;20352;-81
2021/10/28 03:30:49;;;;;;;16.73;8.00;;;6.10;99.90;;;7.17;100.00;100896.31;6078548;23;20089;-81
2021/10/28 03:33:19;;;;;;;16.23;9.15;;;6.10;99.90;;;7.24;100.00;100891.06;6103023;23;20003;-81
2021/10/28 03:35:47;;;;;;;18.05;8.80;;;6.20;99.90;;;7.30;100.00;100895.31;6100097;23;20006;-82
2021/10/28 03:38:31;;;;;;;16.50;9.27;;;6.20;99.90;;;7.36;100.00;100888.44;6099603;23;20010;-80
2021/10/28 03:46:36;;;;;;;11.57;7.35;;;6.30;99.90;;;7.31;100.00;100896.13;6078495;23;20077;-81
2021/10/28 03:57:27;;;;;;;16.30;8.25;;;6.00;99.90;;;7.13;100.00;100888.94;6111614;23;20010;-81
2021/10/28 04:21:40;;;;;;;11.40;6.60;;;5.70;99.90;;;6.71;100.00;100871.22;6070245;23;20033;-80
2021/10/28 04:29:35;;;;;;;16.30;7.65;;;5.60;99.90;;;6.68;100.00;100863.50;6099335;23;20057;-82
2021/10/28 04:32:03;;;;;;;18.63;8.30;;;5.60;99.90;;;6.70;100.00;100862.06;6074006;23;20006;-81
2021/10/28 04:34:29;;;;;;;21.63;9.27;;;5.60;99.90;;;6.67;100.00;100854.41;6100164;23;20010;-82
2021/10/28 04:36:55;;;;;;;13.55;7.05;;;5.60;99.90;;;6.70;100.00;100858.47;6097402;23;20022;-82
2021/10/28 04:39:22;;;;;;;18.75;8.23;;;5.60;99.90;;;6.68;100.00;100860.75;6073529;23;20010;-82
2021/10/28 04:41:48;;;;;;;16.38;9.23;;;5.60;99.90;;;6.75;100.00;100855.50;6099375;23;20010;-81
2021/10/28 04:44:14;;;;;;;17.33;8.05;;;5.70;99.90;;;6.74;100.00;100859.47;6099786;23;20018;-81
2021/10/28 04:46:40;;;;;;;16.27;8.20;;;5.70;99.90;;;6.65;100.00;100856.66;6098805;23;20010;-81
2021/10/28 04:49:07;;;;;;;15.85;9.15;;;5.60;99.90;;;6.65;100.00;100853.88;6098568;23;20718;-82
2021/10/28 04:51:33;;;;;;;19.45;9.80;;;5.60;99.90;;;6.68;100.00;100852.41;6074010;23;20068;-81
2021/10/28 04:53:59;;;;;;;20.00;9.80;;;5.60;99.90;;;6.67;100.00;100846.06;6101250;23;20301;-82
2021/10/28 04:56:25;;;;;;;23.00;11.45;;;5.60;99.90;;;6.96;100.00;100852.91;6078133;23;20026;-82
2021/10/28 04:58:51;;;;;;;25.67;11.23;;;5.80;99.90;;;6.95;100.00;100848.47;6103233;23;20010;-80
2021/10/28 05:01:18;;;;;;;25.15;10.10;;;5.80;99.90;;;6.92;100.00;100847.19;6104672;23;20258;-83
2021/10/28 05:03:46;;;;;;;19.63;9.65;;;5.80;99.90;;;6.84;100.00;100850.78;6103838;23;20061;-81
2021/10/28 05:06:12;;;;;;;16.30;9.32;;;5.70;99.90;;;6.79;100.00;100839.84;6104472;23;20376;-82
2021/10/28 05:08:38;;;;;;;18.30;8.85;;;5.70;99.90;;;6.71;100.00;100840.69;6104560;23;20018;-81
2021/10/28 05:11:04;;;;;;;16.45;8.50;;;5.60;99.90;;;6.59;100.00;100840.50;6078886;23;20006;-81
2021/10/28 05:13:30;;;;;;;20.08;9.05;;;5.50;99.90;;;6.51;100.00;100841.34;6104501;23;20003;-81
2021/10/28 05:15:57;;;;;;;17.90;8.93;;;5.50;99.90;;;6.51;100.00;100838.56;6079045;23;20337;-81
2021/10/28 05:18:24;;;;;;;17.27;8.77;;;5.40;99.90;;;6.47;100.00;100837.56;6105194;23;20006;-82
2021/10/28 05:20:53;;;;;;;15.88;8.80;;;5.40;99.90;;;6.35;100.00;100835.47;6104001;23;20010;-81
2021/10/28 05:23:21;;;;;;;18.65;9.23;;;5.30;99.90;;;6.31;100.00;100829.75;6104449;23;20065;-81
2021/10/28 05:25:48;;;;;;;18.42;8.80;;;5.30;99.90;;;6.31;100.00;100821.41;6077489;23;20020;-80
2021/10/28 05:28:15;;;;;;;12.55;7.97;;;5.30;99.90;;;6.28;100.00;100822.06;6104295;23;20102;-80
2021/10/28 05:30:42;;;;;;;20.48;10.10;;;5.20;99.90;;;6.28;100.00;100824.03;6080075;23;20014;-81
2021/10/28 05:33:08;;;;;;;18.73;9.50;;;5.20;99.90;;;6.31;100.00;100821.41;6080454;23;20010;-82
2021/10/28 05:35:35;;;;;;;27.55;11.98;;;5.30;99.90;;;6.29;100.00;100818.13;6081059;23;20070;-80
2021/10/28 05:38:01;;;;;;;38.45;15.73;;;5.30;99.90;;;6.42;100.00;100830.25;6103045;23;20015;-82
2021/10/28 05:40:27;;;;;;;68.07;25.10;;;5.30;99.90;;;6.86;100.00;100818.78;6079072;23;20455;-81
2021/10/28 05:42:53;;;;;;;71.88;27.80;;;5.70;99.90;;;7.32;100.00;100820.75;6105003;23;20006;-82
2021/10/28 05:45:22;;;;;;;57.08;22.23;;;6.10;99.90;;;7.52;100.00;100818.41;6106052;23;20021;-82
2021/10/28 05:47:49;;;;;;;91.10;32.17;;;6.30;99.90;;;7.68;100.00;100822.25;6104377;23;20081;-83
2021/10/28 05:50:20;;;;;;;92.35;31.55;;;6.50;99.90;;;8.03;100.00;100820.91;6079138;23;20006;-83
2021/10/28 05:52:50;;;;;;;85.60;32.42;;;6.90;99.90;;;8.37;100.00;100817.94;6079029;23;20003;-83
2021/10/28 05:55:16;;;;;;;65.75;26.13;;;7.20;99.90;;;8.42;100.00;100819.69;6103372;23;20010;-82
2021/10/28 05:57:42;;;;;;;70.88;26.88;;;7.30;99.90;;;8.42;100.00;100826.06;6104542;23;20006;-81
2021/10/28 06:00:10;;;;;;;75.97;29.00;;;7.30;99.90;;;8.49;100.00;100822.75;6102843;23;20006;-82
2021/10/28 06:02:35;;;;;;;49.40;22.45;;;7.40;99.90;;;8.48;100.00;100824.69;6102397;23;20013;-82
2021/10/28 06:05:04;;;;;;;59.30;25.42;;;7.40;99.90;;;8.44;100.00;100820.16;6076344;23;20015;-82
2021/10/28 06:07:30;;;;;;;41.97;20.85;;;7.30;99.90;;;8.42;100.00;100826.06;6077160;23;20460;-83
2021/10/28 06:09:56;;;;;;;43.13;18.75;;;7.30;99.90;;;8.36;100.00;100813.50;6104020;23;20050;-81
2021/10/28 06:12:23;;;;;;;40.38;19.73;;;7.20;99.90;;;8.33;100.00;100813.38;6102584;23;20002;-81
2021/10/28 06:14:49;;;;;;;35.17;18.58;;;7.20;99.90;;;8.29;100.00;100815.19;6105017;23;20019;-81
2021/10/28 06:17:17;;;;;;;40.13;18.13;;;7.10;99.90;;;8.14;100.00;100805.47;6109401;23;20015;-81
2021/10/28 06:19:44;;;;;;;35.88;18.02;;;7.00;99.90;;;8.08;100.00;100815.16;6109178;23;20006;-81
2021/10/28 06:22:11;;;;;;;56.42;22.75;;;6.90;99.90;;;8.14;100.00;100811.03;6108239;23;20033;-83
2021/10/28 06:24:38;;;;;;;46.17;21.73;;;7.00;99.90;;;8.24;100.00;100810.63;6106485;23;20010;-81
2021/10/28 06:27:05;;;;;;;44.90;19.98;;;7.10;99.90;;;8.17;100.00;100806.75;6107476;23;20090;-82
2021/10/28 06:29:31;;;;;;;47.08;21.90;;;7.10;99.90;;;8.26;100.00;100799.97;6106410;23;20018;-82
2021/10/28 06:31:57;;;;;;;43.83;19.73;;;7.10;99.90;;;8.33;100.00;100805.84;6105460;23;20046;-80
2021/10/28 06:34:27;;;;;;;52.30;21.27;;;7.10;99.90;;;8.37;100.00;100798.44;6098531;23;20057;-81
2021/10/28 06:36:55;;;;;;;44.50;20.65;;;7.20;99.90;;;8.49;100.00;100803.25;6074218;23;20011;-80
2021/10/28 06:39:21;;;;;;;45.05;20.77;;;7.30;99.90;;;8.56;100.00;100795.19;6099927;23;20006;-80
2021/10/28 06:41:46;;;;;;;42.67;18.27;;;7.40;99.90;;;8.56;100.00;100802.72;6110210;23;20009;-79
2021/10/28 06:44:12;;;;;;;33.03;15.43;;;7.40;99.90;;;8.50;100.00;100799.31;6106884;23;20002;-80
2021/10/28 06:46:38;;;;;;;23.42;11.35;;;7.20;99.90;;;8.36;100.00;100794.03;6102786;23;20094;-80
2021/10/28 06:49:06;;;;;;;23.90;11.65;;;7.10;99.90;;;8.31;100.00;100793.44;6101163;23;20010;-80
2021/10/28 06:51:40;;;;;;;19.85;10.75;;;7.00;99.90;;;8.33;100.00;100791.09;6101263;23;20007;-81
2021/10/28 06:56:59;;;;;;;26.23;11.38;;;7.10;99.90;;;8.62;100.00;100793.81;6111315;23;20325;-80
2021/10/28 07:04:39;;;;;;;25.23;12.63;;;7.60;99.90;;;9.38;100.00;100802.50;6108353;23;20403;-80
2021/10/28 07:07:05;;;;;;;23.02;12.93;;;7.80;99.90;;;9.66;100.00;100788.69;6099307;23;20090;-82
2021/10/28 07:14:32;;;;;;;25.88;15.80;;;8.60;99.90;;;11.20;100.00;100788.13;6108899;23;20037;-82
2021/10/28 07:17:08;;;;;;;28.58;16.63;;;9.20;99.90;;;11.90;100.00;100791.94;6074770;23;20011;-82
2021/10/28 07:20:05;;;;;;;27.35;15.38;;;9.80;99.90;;;12.54;100.00;100797.00;6075900;23;20384;-82
2021/10/28 08:06:00;;;;;;;12.68;8.63;;;14.20;99.90;;;15.95;83.11;100790.38;6103870;23;20071;-81
2021/10/28 08:19:18;;;;;;;18.52;9.93;;;14.80;99.90;;;16.82;78.69;100783.63;6114553;23;20046;-83
2021/10/28 08:21:51;;;;;;;14.63;8.65;;;15.00;99.90;;;17.09;76.79;100778.47;6104427;23;20006;-83
2021/10/28 08:24:33;;;;;;;10.00;6.90;;;15.30;99.90;;;17.44;76.25;100779.75;6102914;23;20436;-82
2021/10/28 08:29:50;;;;;;;11.50;7.07;;;15.80;99.90;;;17.84;71.97;100780.22;6098235;23;20368;-80
2021/10/28 08:32:16;;;;;;;12.77;7.85;;;16.00;99.90;;;17.96;70.88;100776.16;6097760;23;20002;-81
2021/10/28 08:34:44;;;;;;;11.63;7.43;;;16.10;99.90;;;18.07;71.28;100784.63;6071833;23;20011;-81
2021/10/28 08:37:16;;;;;;;12.80;6.35;;;16.20;99.90;;;18.29;69.67;100777.72;6072369;23;20014;-80
2021/10/28 08:39:51;;;;;;;10.75;6.47;;;16.40;99.90;;;18.36;68.35;100772.88;6048418;23;20019;-80
2021/10/28 08:42:23;;;;;;;8.52;6.25;;;16.50;99.90;;;18.41;68.32;100771.63;6072411;23;20026;-82
2021/10/28 08:44:56;;;;;;;9.13;6.00;;;16.60;99.90;;;18.60;68.27;100765.53;6054299;23;20094;-80
2021/10/28 08:47:24;;;;;;;8.88;5.35;;;16.80;99.90;;;18.23;66.62;100763.22;6055399;23;20337;-77
2021/10/28 08:50:00;;;;;;;11.65;5.63;;;16.70;99.90;;;18.14;66.24;100759.19;6100322;23;20014;-81
2021/10/28 08:55:33;;;;;;;9.13;4.47;;;16.50;99.90;;;17.93;67.26;100757.19;6114592;23;20382;-82
2021/10/28 09:24:43;;;;;;;6.20;4.43;;;16.50;99.90;;;17.52;64.04;100724.91;6098568;23;20138;-81
2021/10/28 09:27:45;;;;;;;7.30;3.92;;;16.50;99.90;;;17.54;64.84;100734.59;6098192;23;20352;-80
2021/10/28 09:32:52;;;;;;;7.20;3.78;;;16.60;99.90;;;17.85;63.38;100733.00;6098186;23;20368;-81
2021/10/28 09:46:47;;;;;;;5.97;4.00;;;17.30;99.90;;;18.54;59.48;100715.47;6084797;23;20444;-81
2021/10/28 09:52:26;;;;;;;8.60;3.20;;;17.40;99.90;;;18.69;58.34;100717.00;6104405;23;20100;-80
2021/10/28 10:00:35;;;;;;;7.15;3.85;;;17.70;99.90;;;18.86;59.06;100710.44;6069708;23;20022;-80
2021/10/28 10:03:22;;;;;;;7.57;3.60;;;17.70;99.90;;;19.00;58.40;100718.06;6098113;23;20013;-80
2021/10/28 10:06:26;;;;;;;7.72;3.80;;;17.70;99.90;;;19.25;57.13;100713.84;6076465;23;20017;-80
2021/10/28 10:08:43;;;;;;;4.57;3.00;;;17.90;99.90;;;19.60;57.24;100718.44;6033105;23;20021;-80
2021/10/28 10:11:10;;;;;;;5.47;3.15;;;18.10;99.90;;;19.58;57.30;100717.25;6070870;23;20033;-80
2021/10/28 10:13:37;;;;;;;5.38;3.08;;;18.20;99.90;;;19.98;56.40;100725.78;6072905;23;20006;-80
2021/10/28 10:16:04;;;;;;;4.88;3.10;;;18.40;99.90;;;19.40;55.70;100715.38;6095036;23;20348;-80
2021/10/28 10:18:34;;;;;;;8.32;3.22;;;18.20;99.90;;;19.10;56.35;100712.34;6098230;23;20014;-79
2021/10/28 10:21:13;;;;;;;4.55;3.35;;;18.10;99.90;;;19.16;55.90;100722.00;6097190;23;20007;-78
2021/10/28 10:24:30;;;;;;;6.50;3.45;;;18.00;99.90;;;19.39;55.63;100710.88;6073700;23;20021;-78
2021/10/28 14:00:23;;;;;;;3.75;1.95;;;18.30;78.10;;;19.36;48.14;100430.56;6077883;23;20037;-81
2021/10/28 14:38:09;;;;;;;3.53;2.63;;;17.40;87.40;;;18.57;51.44;100398.66;6114275;23;20020;-82
2021/10/28 15:30:08;;;;;;;5.45;3.25;;;16.10;99.90;;;16.98;58.09;100350.81;6118057;23;20033;-78
2021/10/28 15:40:16;;;;;;;7.45;4.07;;;15.70;99.90;;;16.63;60.22;100340.47;6110283;23;20045;-80
2021/10/28 15:49:04;;;;;;;8.90;3.88;;;15.30;99.90;;;16.29;61.75;100338.06;6103930;23;20014;-80
2021/10/28 15:51:39;;;;;;;7.53;3.47;;;15.20;99.90;;;16.25;61.98;100339.25;6104525;23;20011;-79
2021/10/28 16:23:27;;;;;;;9.02;5.43;;;14.00;99.90;;;14.96;69.67;100333.78;6104447;23;20025;-82
2021/10/28 16:25:52;;;;;;;10.10;5.80;;;13.90;99.90;;;14.80;70.83;100333.34;6104586;23;20010;-81
2021/10/28 16:28:19;;;;;;;8.82;5.82;;;13.80;99.90;;;14.62;71.65;100338.03;6102019;23;20010;-82
2021/10/28 16:30:47;;;;;;;9.50;6.30;;;13.60;99.90;;;14.42;73.17;100334.72;6076864;23;20018;-82
2021/10/28 16:33:15;;;;;;;13.25;7.60;;;13.50;99.90;;;14.43;73.48;100336.31;6078501;23;20013;-81
2021/10/28 16:35:43;;;;;;;13.98;8.07;;;13.50;99.90;;;14.45;73.44;100333.91;6103906;23;20008;-80
2021/10/28 16:38:10;;;;;;;15.30;8.10;;;13.50;99.90;;;14.49;73.78;100334.75;6055902;23;20014;-79
2021/10/28 16:40:40;;;;;;;13.32;7.60;;;13.50;99.90;;;14.57;73.48;100336.44;6106898;23;20010;-81
2021/10/28 16:43:08;;;;;;;13.45;9.32;;;13.50;99.90;;;14.50;74.07;100335.56;6059485;23;20442;-81
2021/10/28 16:45:37;;;;;;;14.07;8.98;;;13.50;99.90;;;14.36;74.60;100327.03;6082332;23;20021;-80
2021/10/28 16:48:07;;;;;;;15.30;9.38;;;13.50;99.90;;;14.39;74.96;100329.88;6107077;23;20532;-82
2021/10/28 16:50:35;;;;;;;14.70;9.55;;;13.50;99.90;;;14.38;74.95;100333.09;6081722;23;20066;-79
2021/10/28 16:53:02;;;;;;;12.40;9.25;;;13.40;99.90;;;14.18;76.08;100330.50;6108260;23;20058;-81
2021/10/28 16:55:28;;;;;;;17.38;10.18;;;13.20;99.90;;;14.05;77.02;100332.03;6106153;23;20014;-80
2021/10/28 16:57:54;;;;;;;17.38;10.43;;;13.20;99.90;;;14.04;76.90;100327.59;6080915;23;20089;-81
2021/10/28 17:00:19;;;;;;;14.88;10.50;;;13.10;99.90;;;14.11;76.62;100335.25;6102518;23;20014;-82
2021/10/28 17:02:46;;;;;;;15.40;10.20;;;13.20;99.90;;;13.95;77.65;100340.34;6100814;23;20456;-82
2021/10/28 17:05:14;;;;;;;18.52;10.13;;;13.10;99.90;;;13.98;77.48;100346.00;6077341;23;20045;-83
2021/10/28 17:07:40;;;;;;;17.38;10.48;;;12.90;99.90;;;13.87;78.21;100350.69;6117737;23;20011;-79
2021/10/28 17:10:07;;;;;;;18.83;11.75;;;12.90;99.90;;;13.72;78.87;100351.78;6121628;23;20019;-78
2021/10/28 17:12:35;;;;;;;17.77;10.85;;;12.80;99.90;;;13.73;79.32;100345.78;6096003;23;20014;-77
2021/10/28 17:15:04;;;;;;;15.00;11.00;;;12.80;99.90;;;13.76;79.05;100346.19;6097139;23;20006;-80
2021/10/28 17:17:30;;;;;;;18.65;11.38;;;12.80;99.90;;;13.61;79.62;100339.66;6121004;23;19994;-80
2021/10/28 17:20:02;;;;;;;18.88;12.00;;;12.70;99.90;;;13.47;80.54;100329.09;6094633;23;20021;-80
2021/10/28 17:22:28;;;;;;;19.20;11.63;;;12.60;99.90;;;13.49;80.52;100337.91;6119586;23;20024;-79
2021/10/28 17:24:54;;;;;;;18.58;11.63;;;12.50;99.90;;;13.30;81.88;100340.91;6119332;23;19998;-80
2021/10/28 17:27:21;;;;;;;18.83;11.68;;;12.40;99.90;;;13.25;82.00;100330.06;6119247;23;20012;-78
2021/10/28 17:29:47;;;;;;;20.80;12.80;;;12.40;99.90;;;13.28;81.66;100334.88;6117879;23;20025;-78
2021/10/28 17:32:12;;;;;;;17.50;11.55;;;12.50;99.90;;;13.33;81.57;100330.91;6107795;23;20033;-83
2021/10/28 17:34:38;;;;;;;22.73;12.77;;;12.50;99.90;;;13.37;81.61;100331.78;6102706;23;20092;-81
2021/10/28 17:37:06;;;;;;;18.17;12.73;;;12.50;99.90;;;13.31;81.67;100327.69;6078950;23;20089;-80
2021/10/28 17:39:32;;;;;;;22.52;13.55;;;12.40;99.90;;;13.22;82.26;100336.44;6081242;23;20007;-83
2021/10/28 17:42:00;;;;;;;19.40;13.15;;;12.40;99.90;;;13.21;82.17;100332.00;6080279;23;20013;-80
2021/10/28 17:44:50;;;;;;;18.55;11.82;;;12.30;99.90;;;13.16;82.37;100333.13;6078566;23;20491;-82
2021/10/28 17:47:17;;;;;;;18.15;12.27;;;12.30;99.90;;;13.10;82.97;100329.06;6064084;23;20014;-81
2021/10/28 17:49:42;;;;;;;17.63;12.32;;;12.20;99.90;;;13.03;83.06;100328.97;6102909;23;20095;-80
2021/10/28 17:52:09;;;;;;;19.15;12.38;;;12.20;99.90;;;13.01;83.17;100334.13;6078830;23;20112;-81
2021/10/28 17:54:36;;;;;;;24.13;13.77;;;12.20;99.90;;;13.05;82.87;100335.00;6104603;23;20010;-82
2021/10/28 17:57:06;;;;;;;19.30;13.18;;;12.10;99.90;;;12.94;83.27;100334.03;6103632;23;20355;-82
2021/10/28 17:59:33;;;;;;;20.13;13.63;;;12.00;99.90;;;12.82;84.24;100337.09;6077881;23;20010;-82
2021/10/28 18:02:00;;;;;;;18.20;12.25;;;12.00;99.90;;;12.82;84.17;100337.09;6078207;23;20011;-80
2021/10/28 18:04:26;;;;;;;17.85;12.45;;;11.90;99.90;;;12.83;84.17;100337.91;6075006;23;20440;-80
2021/10/28 18:06:52;;;;;;;20.95;13.75;;;11.80;99.90;;;12.69;85.35;100341.31;6100942;23;20009;-81
2021/10/28 18:09:18;;;;;;;22.27;13.27;;;11.70;99.90;;;12.66;85.18;100328.88;6101098;23;20007;-81
2021/10/28 18:11:45;;;;;;;22.10;13.00;;;11.70;99.90;;;12.54;85.48;100328.31;6100319;23;20032;-81
2021/10/28 18:14:15;;;;;;;20.25;13.02;;;11.60;99.90;;;12.67;84.84;100335.31;6075139;23;20007;-81
2021/10/28 18:16:42;;;;;;;19.15;12.80;;;11.70;99.90;;;12.69;84.49;100336.53;6076115;23;20011;-81
2021/10/28 18:19:10;;;;;;;18.15;12.93;;;11.60;99.90;;;12.61;84.81;100336.81;6076755;23;20010;-80
2021/10/28 18:21:41;;;;;;;21.42;12.98;;;11.60;99.90;;;12.47;85.84;100328.22;6077547;23;20021;-78
2021/10/28 18:24:09;;;;;;;19.83;12.07;;;11.50;99.90;;;12.48;85.65;100327.03;6078063;23;20475;-81
2021/10/28 18:26:36;;;;;;;22.85;13.15;;;11.50;99.90;;;12.47;85.44;100331.00;6081675;23;20422;-80
2021/10/28 18:29:04;;;;;;;19.27;12.98;;;11.50;99.90;;;12.41;85.68;100327.75;6064228;23;20049;-80
2021/10/28 18:31:29;;;;;;;22.05;12.27;;;11.40;99.90;;;12.38;86.03;100322.91;6089515;23;20015;-82
2021/10/28 18:33:59;;;;;;;17.90;13.02;;;11.40;99.90;;;12.38;85.80;100319.28;6089007;23;20517;-80
2021/10/28 18:36:31;;;;;;;21.83;13.35;;;11.40;99.90;;;12.28;86.12;100322.72;6091165;23;20021;-79
2021/10/28 18:38:58;;;;;;;19.75;12.75;;;11.40;99.90;;;12.28;86.55;100328.34;6114586;23;20006;-79
2021/10/28 18:41:25;;;;;;;23.20;13.20;;;11.40;99.90;;;12.24;86.34;100319.06;6111646;23;20007;-81
2021/10/28 18:43:52;;;;;;;17.27;11.93;;;11.30;99.90;;;12.25;86.50;100309.50;6075802;23;20006;-82
2021/10/28 18:46:23;;;;;;;21.05;13.35;;;11.30;99.90;;;12.28;86.19;100309.53;6076244;23;20014;-81
2021/10/28 18:48:58;;;;;;;21.80;12.27;;;11.30;99.90;;;12.24;86.14;100307.88;6052039;23;20011;-81
2021/10/28 18:51:25;;;;;;;24.25;13.75;;;11.30;99.90;;;12.26;85.93;100308.31;6101520;23;20007;-81
2021/10/28 18:53:53;;;;;;;18.73;13.20;;;11.40;99.90;;;12.31;85.60;100311.59;6076752;23;20313;-81
2021/10/28 18:56:20;;;;;;;19.77;11.52;;;11.40;99.90;;;12.33;85.17;100312.00;6075847;23;20448;-81
2021/10/28 18:58:48;;;;;;;20.58;12.70;;;11.40;99.90;;;12.24;86.04;100305.06;6078838;23;20396;-81
2021/10/28 19:01:17;;;;;;;23.38;13.57;;;11.40;99.90;;;12.21;85.96;100303.84;6076234;23;20022;-80
2021/10/28 19:03:46;;;;;;;20.30;12.75;;;11.40;99.90;;;12.25;85.54;100303.88;6053405;23;20010;-81